createdAt,value
2023-02-06T00:01:40.504Z,-4.80
2023-02-06T00:04:08.291Z,-4.90
2023-02-06T00:06:36.358Z,-5.00
2023-02-06T00:09:04.830Z,-5.00
2023-02-06T00:11:32.065Z,-5.00
2023-02-06T00:13:59.290Z,-5.00
2023-02-06T00:16:33.072Z,-5.10
2023-02-06T00:19:00.735Z,-5.20
2023-02-06T00:21:29.358Z,-5.30
2023-02-06T00:23:59.093Z,-5.30
2023-02-06T00:26:26.960Z,-5.30
2023-02-06T00:28:54.501Z,-5.30
2023-02-06T00:31:22.466Z,-5.40
2023-02-06T00:33:49.652Z,-5.40
2023-02-06T00:36:16.970Z,-5.50
2023-02-06T00:38:44.362Z,-5.40
2023-02-06T00:41:11.548Z,-5.50
2023-02-06T00:43:38.767Z,-5.50
2023-02-06T00:46:06.002Z,-5.60
2023-02-06T00:48:33.290Z,-5.60
2023-02-06T00:51:00.616Z,-5.50
2023-02-06T00:53:27.962Z,-5.50
2023-02-06T00:55:55.253Z,-5.50
2023-02-06T00:58:22.784Z,-5.50
2023-02-06T01:00:50.163Z,-5.50
2023-02-06T01:03:17.366Z,-5.40
2023-02-06T01:05:44.456Z,-5.40
2023-02-06T01:08:11.947Z,-5.40
2023-02-06T01:10:44.438Z,-5.30
2023-02-06T01:13:11.773Z,-5.20
2023-02-06T01:15:39.081Z,-5.20
2023-02-06T01:18:06.313Z,-5.20
2023-02-06T01:20:33.764Z,-5.20
2023-02-06T01:23:01.322Z,-5.20
2023-02-06T01:25:28.650Z,-5.10
2023-02-06T01:27:56.030Z,-5.20
2023-02-06T01:30:23.585Z,-5.20
2023-02-06T01:32:50.945Z,-5.30
2023-02-06T01:35:18.191Z,-5.40
2023-02-06T01:37:45.344Z,-5.60
2023-02-06T01:40:16.063Z,-5.70
2023-02-06T01:42:44.162Z,-5.80
2023-02-06T01:45:26.838Z,-5.90
2023-02-06T01:48:05.499Z,-5.90
2023-02-06T01:50:35.413Z,-6.00
2023-02-06T01:53:05.498Z,-6.00
2023-02-06T01:55:34.562Z,-6.00
2023-02-06T01:58:03.422Z,-6.00
2023-02-06T02:00:30.722Z,-6.10
2023-02-06T02:02:57.938Z,-6.20
2023-02-06T02:05:25.454Z,-6.20
2023-02-06T02:08:06.434Z,-6.20
2023-02-06T02:10:34.379Z,-6.30
2023-02-06T02:13:01.529Z,-6.30
2023-02-06T02:15:46.771Z,-6.30
2023-02-06T02:18:53.958Z,-6.40
2023-02-06T02:21:41.463Z,-6.40
2023-02-06T02:24:11.693Z,-6.30
2023-02-06T02:27:00.618Z,-6.40
2023-02-06T02:29:47.217Z,-6.40
2023-02-06T02:32:45.463Z,-6.50
2023-02-06T02:35:35.158Z,-6.50
2023-02-06T02:38:27.014Z,-6.60
2023-02-06T02:41:29.723Z,-6.70
2023-02-06T02:43:59.798Z,-6.70
2023-02-06T02:46:35.504Z,-6.70
2023-02-06T02:49:06.209Z,-6.60
2023-02-06T02:51:34.575Z,-6.50
2023-02-06T02:54:01.997Z,-6.50
2023-02-06T02:56:29.816Z,-6.50
2023-02-06T02:59:11.463Z,-6.60
2023-02-06T03:01:44.862Z,-6.70
2023-02-06T03:04:27.979Z,-6.60
2023-02-06T03:07:22.767Z,-6.70
2023-02-06T03:09:59.009Z,-6.70
2023-02-06T03:12:33.145Z,-6.70
2023-02-06T03:15:05.345Z,-6.60
2023-02-06T03:17:46.491Z,-6.50
2023-02-06T03:20:15.353Z,-6.50
2023-02-06T03:22:47.582Z,-6.50
2023-02-06T03:25:23.503Z,-6.70
2023-02-06T03:27:52.816Z,-6.80
2023-02-06T03:30:24.020Z,-6.90
2023-02-06T03:32:55.672Z,-6.90
2023-02-06T03:35:29.238Z,-6.80
2023-02-06T03:37:56.658Z,-6.90
2023-02-06T03:40:26.593Z,-7.00
2023-02-06T03:42:58.750Z,-7.10
2023-02-06T03:45:33.081Z,-7.10
2023-02-06T03:48:08.998Z,-7.10
2023-02-06T03:50:39.704Z,-7.30
2023-02-06T03:53:07.964Z,-7.30
2023-02-06T03:55:37.702Z,-7.30
2023-02-06T03:58:12.541Z,-7.30
2023-02-06T04:00:43.010Z,-7.40
2023-02-06T04:03:11.682Z,-7.40
2023-02-06T04:05:39.789Z,-7.30
2023-02-06T04:08:07.544Z,-7.30
2023-02-06T04:10:34.705Z,-7.20
2023-02-06T04:13:01.891Z,-7.10
2023-02-06T04:15:29.176Z,-7.00
2023-02-06T04:18:01.541Z,-7.10
2023-02-06T04:20:29.895Z,-7.10
2023-02-06T04:22:58.451Z,-7.20
2023-02-06T04:25:26.089Z,-7.20
2023-02-06T04:27:53.257Z,-7.30
2023-02-06T04:30:20.642Z,-7.40
2023-02-06T04:32:47.869Z,-7.40
2023-02-06T04:35:15.085Z,-7.30
2023-02-06T04:37:42.402Z,-7.40
2023-02-06T04:40:10.628Z,-7.30
2023-02-06T04:42:37.932Z,-7.40
2023-02-06T04:45:05.372Z,-7.40
2023-02-06T04:47:32.583Z,-7.40
2023-02-06T04:49:59.812Z,-7.50
2023-02-06T04:52:27.062Z,-7.40
2023-02-06T04:54:54.245Z,-7.50
2023-02-06T04:57:21.632Z,-7.50
2023-02-06T04:59:54.802Z,-7.50
2023-02-06T05:02:27.658Z,-7.50
2023-02-06T05:04:54.798Z,-7.30
2023-02-06T05:07:22.040Z,-7.50
2023-02-06T05:09:49.304Z,-7.60
2023-02-06T05:12:16.425Z,-7.70
2023-02-06T05:14:43.536Z,-7.60
2023-02-06T05:17:10.752Z,-7.70
2023-02-06T05:19:37.868Z,-7.70
2023-02-06T05:22:05.137Z,-7.70
2023-02-06T05:24:32.570Z,-7.70
2023-02-06T05:26:59.964Z,-7.60
2023-02-06T05:29:27.185Z,-7.70
2023-02-06T05:31:54.497Z,-7.80
2023-02-06T05:34:21.766Z,-7.80
2023-02-06T05:36:48.990Z,-7.90
2023-02-06T05:39:16.250Z,-7.80
2023-02-06T05:41:43.330Z,-7.90
2023-02-06T05:44:11.176Z,-7.90
2023-02-06T05:46:38.545Z,-7.80
2023-02-06T05:49:05.770Z,-7.80
2023-02-06T05:51:33.022Z,-7.70
2023-02-06T05:54:00.208Z,-7.70
2023-02-06T05:56:27.461Z,-7.70
2023-02-06T05:58:54.672Z,-7.70
2023-02-06T06:01:21.903Z,-7.80
2023-02-06T06:03:49.128Z,-7.80
2023-02-06T06:06:16.341Z,-7.90
2023-02-06T06:08:43.603Z,-7.90
2023-02-06T06:11:10.760Z,-7.90
2023-02-06T06:13:38.124Z,-7.90
2023-02-06T06:16:05.701Z,-8.00
2023-02-06T06:18:32.870Z,-8.10
2023-02-06T06:21:00.008Z,-8.00
2023-02-06T06:23:27.165Z,-8.10
2023-02-06T06:25:54.481Z,-8.00
2023-02-06T06:28:21.726Z,-7.90
2023-02-06T06:30:49.097Z,-7.80
2023-02-06T06:33:19.503Z,-7.70
2023-02-06T06:35:46.768Z,-7.70
2023-02-06T06:38:14.663Z,-7.80
2023-02-06T06:40:41.784Z,-7.80
2023-02-06T06:43:08.964Z,-7.80
2023-02-06T06:45:36.413Z,-7.80
2023-02-06T06:48:04.202Z,-7.80
2023-02-06T06:50:31.379Z,-7.90
2023-02-06T06:52:58.549Z,-8.00
2023-02-06T06:55:25.835Z,-8.00
2023-02-06T06:57:53.020Z,-8.00
2023-02-06T07:00:20.638Z,-8.00
2023-02-06T07:02:50.232Z,-8.10
2023-02-06T07:05:17.455Z,-8.10
2023-02-06T07:07:44.825Z,-8.10
2023-02-06T07:10:13.083Z,-8.10
2023-02-06T07:12:40.468Z,-8.30
2023-02-06T07:15:08.533Z,-8.30
2023-02-06T07:17:35.763Z,-8.20
2023-02-06T07:20:03.833Z,-8.10
2023-02-06T07:22:31.197Z,-8.10
2023-02-06T07:24:58.502Z,-8.00
2023-02-06T07:27:25.633Z,-8.00
2023-02-06T07:29:53.012Z,-7.90
2023-02-06T07:32:20.195Z,-7.90
2023-02-06T07:34:47.558Z,-7.80
2023-02-06T07:37:14.940Z,-7.90
2023-02-06T07:39:42.112Z,-7.80
2023-02-06T07:42:09.412Z,-7.90
2023-02-06T07:44:36.615Z,-7.90
2023-02-06T07:47:03.913Z,-7.80
2023-02-06T07:49:31.181Z,-7.70
2023-02-06T07:51:58.543Z,-7.70
2023-02-06T07:54:25.826Z,-7.70
2023-02-06T07:56:52.967Z,-7.60
2023-02-06T07:59:20.145Z,-7.60
2023-02-06T08:01:47.494Z,-7.50
2023-02-06T08:04:14.728Z,-7.50
2023-02-06T08:06:43.247Z,-7.50
2023-02-06T08:09:17.298Z,-7.40
2023-02-06T08:11:44.964Z,-7.30
2023-02-06T08:14:12.387Z,-7.20
2023-02-06T08:16:39.730Z,-7.00
2023-02-06T08:19:11.115Z,-6.90
2023-02-06T08:21:39.057Z,-7.00
2023-02-06T08:24:06.843Z,-6.80
2023-02-06T08:26:34.161Z,-6.80
2023-02-06T08:29:03.830Z,-6.70
2023-02-06T08:31:40.008Z,-6.50
2023-02-06T08:34:09.013Z,-6.20
2023-02-06T08:36:36.816Z,-6.10
2023-02-06T08:39:06.494Z,-6.00
2023-02-06T08:41:38.972Z,-5.80
2023-02-06T08:44:11.907Z,-5.60
2023-02-06T08:46:40.378Z,-5.50
2023-02-06T08:49:12.539Z,-5.40
2023-02-06T08:51:40.070Z,-5.40
2023-02-06T08:54:11.208Z,-5.30
2023-02-06T08:56:38.607Z,-5.10
2023-02-06T08:59:07.592Z,-5.20
2023-02-06T09:01:38.120Z,-5.10
2023-02-06T09:04:09.609Z,-5.00
2023-02-06T09:06:39.273Z,-4.80
2023-02-06T09:09:07.639Z,-4.70
2023-02-06T09:11:35.762Z,-4.70
2023-02-06T09:14:05.021Z,-4.50
2023-02-06T09:16:33.901Z,-4.50
2023-02-06T09:19:02.855Z,-4.40
2023-02-06T09:21:33.084Z,-4.20
2023-02-06T09:24:03.375Z,-4.40
2023-02-06T09:26:38.890Z,-4.10
2023-02-06T09:29:11.766Z,-3.90
2023-02-06T09:31:42.078Z,-3.70
2023-02-06T09:34:11.160Z,-3.70
2023-02-06T09:36:38.714Z,-3.50
2023-02-06T09:39:07.732Z,-3.40
2023-02-06T09:41:49.285Z,-3.10
2023-02-06T09:44:29.864Z,-3.00
2023-02-06T09:47:24.057Z,-2.90
2023-02-06T09:50:14.900Z,-3.00
2023-02-06T09:52:54.128Z,-2.60
2023-02-06T09:55:42.360Z,-2.40
2023-02-06T09:58:41.713Z,-2.20
2023-02-06T10:01:27.947Z,-1.50
2023-02-06T10:04:18.280Z,-1.20
2023-02-06T10:07:09.427Z,-1.30
2023-02-06T10:09:51.001Z,-1.60
2023-02-06T10:12:30.216Z,-1.50
2023-02-06T10:15:16.461Z,-1.40
2023-02-06T10:17:57.016Z,-1.40
2023-02-06T10:20:33.462Z,-1.20
2023-02-06T10:23:23.920Z,-1.00
2023-02-06T10:26:12.543Z,-0.80
2023-02-06T10:28:40.958Z,-1.00
2023-02-06T10:31:24.764Z,-1.40
2023-02-06T10:34:14.255Z,-1.40
2023-02-06T10:37:02.953Z,-1.20
2023-02-06T10:39:40.173Z,-1.10
2023-02-06T10:42:07.307Z,-1.00
2023-02-06T10:45:22.050Z,-1.00
2023-02-06T10:48:04.893Z,-1.00
2023-02-06T10:50:45.178Z,-1.10
2023-02-06T10:53:18.668Z,-1.10
2023-02-06T10:56:09.061Z,-1.40
2023-02-06T10:58:41.432Z,-1.30
2023-02-06T11:01:25.164Z,-1.30
2023-02-06T11:04:12.181Z,-1.20
2023-02-06T11:06:42.590Z,-1.10
2023-02-06T11:09:10.779Z,-1.00
2023-02-06T11:11:51.475Z,-1.00
2023-02-06T11:14:31.101Z,-0.80
2023-02-06T11:17:00.517Z,-0.80
2023-02-06T11:19:31.272Z,-0.80
2023-02-06T11:22:12.102Z,-0.90
2023-02-06T11:24:57.650Z,-0.70
2023-02-06T11:27:25.659Z,-0.80
2023-02-06T11:29:53.287Z,-0.90
2023-02-06T11:32:38.007Z,-0.70
2023-02-06T11:35:29.800Z,-0.80
2023-02-06T11:38:25.150Z,-0.60
2023-02-06T11:41:15.857Z,-0.70
2023-02-06T11:43:42.968Z,-0.50
2023-02-06T11:46:16.048Z,-0.70
2023-02-06T11:48:59.728Z,-0.70
2023-02-06T11:51:55.673Z,-0.70
2023-02-06T11:54:28.215Z,-0.60
2023-02-06T11:57:00.339Z,-0.40
2023-02-06T11:59:27.717Z,-0.30
2023-02-06T12:01:55.093Z,-0.60
2023-02-06T12:04:26.237Z,-0.60
2023-02-06T12:07:01.224Z,-0.50
2023-02-06T12:09:28.743Z,-0.70
2023-02-06T12:12:07.175Z,-0.70
2023-02-06T12:14:55.551Z,-0.80
2023-02-06T12:17:34.226Z,-0.80
2023-02-06T12:20:16.421Z,-0.60
2023-02-06T12:22:50.170Z,-0.60
2023-02-06T12:25:28.157Z,-0.50
2023-02-06T12:28:05.543Z,-0.30
2023-02-06T12:30:39.427Z,-0.30
2023-02-06T12:33:23.155Z,-0.40
2023-02-06T12:35:57.422Z,-0.40
2023-02-06T12:38:43.775Z,-0.30
2023-02-06T12:41:16.887Z,-0.20
2023-02-06T12:43:51.673Z,-0.10
2023-02-06T12:46:25.965Z,-0.10
2023-02-06T12:49:24.200Z,-0.20
2023-02-06T12:52:04.948Z,-0.10
2023-02-06T12:54:48.333Z,-0.40
2023-02-06T12:57:25.059Z,-0.40
2023-02-06T13:00:14.293Z,-0.40
2023-02-06T13:02:48.097Z,-0.40
2023-02-06T13:05:22.560Z,-0.40
2023-02-06T13:07:50.771Z,-0.30
2023-02-06T13:10:25.862Z,-0.40
2023-02-06T13:12:58.740Z,-0.30
2023-02-06T13:15:31.354Z,-0.30
2023-02-06T13:17:58.822Z,-0.30
2023-02-06T13:20:27.297Z,-0.20
2023-02-06T13:23:16.430Z,-0.20
2023-02-06T13:25:48.839Z,-0.30
2023-02-06T13:28:40.665Z,-0.30
2023-02-06T13:31:22.492Z,-0.40
2023-02-06T13:33:59.356Z,-0.40
2023-02-06T13:36:42.685Z,-0.40
2023-02-06T13:39:34.505Z,-0.30
2023-02-06T13:42:24.270Z,-0.40
2023-02-06T13:44:52.478Z,-0.50
2023-02-06T13:47:26.544Z,-0.50
2023-02-06T13:49:59.512Z,-0.50
2023-02-06T13:52:43.068Z,-0.60
2023-02-06T13:55:13.145Z,-0.60
2023-02-06T13:58:01.616Z,-0.60
2023-02-06T14:00:32.200Z,-0.70
2023-02-06T14:03:38.330Z,-0.70
2023-02-06T14:06:11.395Z,-0.80
2023-02-06T14:08:41.972Z,-0.90
2023-02-06T14:11:34.213Z,-0.90
2023-02-06T14:14:41.123Z,-0.90
2023-02-06T14:17:46.610Z,-0.90
2023-02-06T14:20:28.931Z,-1.00
2023-02-06T14:23:25.564Z,-1.10
2023-02-06T14:26:16.123Z,-1.20
2023-02-06T14:29:03.730Z,-1.20
2023-02-06T14:32:07.324Z,-1.20
2023-02-06T14:34:52.639Z,-1.20
2023-02-06T14:37:41.098Z,-1.40
2023-02-06T14:40:27.776Z,-1.40
2023-02-06T14:43:01.470Z,-1.50
2023-02-06T14:45:41.620Z,-1.60
2023-02-06T14:48:38.082Z,-1.60
2023-02-06T14:51:06.897Z,-1.70
2023-02-06T14:53:39.843Z,-1.70
2023-02-06T14:56:17.872Z,-1.80
2023-02-06T14:58:46.625Z,-1.90
2023-02-06T15:01:25.010Z,-2.00
2023-02-06T15:04:07.509Z,-2.00
2023-02-06T15:06:37.995Z,-2.10
2023-02-06T15:09:06.302Z,-2.30
2023-02-06T15:11:34.809Z,-2.40
2023-02-06T15:14:19.062Z,-2.40
2023-02-06T15:16:50.620Z,-2.40
2023-02-06T15:19:25.332Z,-2.60
2023-02-06T15:22:02.890Z,-2.60
2023-02-06T15:24:48.074Z,-2.80
2023-02-06T15:27:27.612Z,-2.90
2023-02-06T15:29:55.566Z,-3.00
2023-02-06T15:32:31.002Z,-3.10
2023-02-06T15:35:00.082Z,-3.10
2023-02-06T15:37:34.014Z,-3.20
2023-02-06T15:40:16.257Z,-3.10
2023-02-06T15:42:43.542Z,-3.10
2023-02-06T15:45:35.906Z,-3.10
2023-02-06T15:48:37.303Z,-3.10
2023-02-06T15:51:49.420Z,-3.20
2023-02-06T15:54:24.348Z,-3.30
2023-02-06T15:57:02.465Z,-3.30
2023-02-06T15:59:32.649Z,-3.40
2023-02-06T16:02:00.674Z,-3.40
2023-02-06T16:04:29.592Z,-3.40
2023-02-06T16:07:26.135Z,-3.40
2023-02-06T16:10:08.949Z,-3.40
2023-02-06T16:12:41.584Z,-3.40
2023-02-06T16:16:01.634Z,-3.40
2023-02-06T16:18:37.729Z,-3.40
2023-02-06T16:21:14.977Z,-3.40
2023-02-06T16:23:53.282Z,-3.50
2023-02-06T16:26:26.906Z,-3.60
2023-02-06T16:29:15.715Z,-3.70
2023-02-06T16:31:45.197Z,-3.70
2023-02-06T16:34:30.720Z,-3.80
2023-02-06T16:36:57.924Z,-3.80
2023-02-06T16:39:25.179Z,-3.90
2023-02-06T16:41:54.186Z,-3.90
2023-02-06T16:44:21.924Z,-4.00
2023-02-06T16:46:49.322Z,-4.00
2023-02-06T16:49:20.380Z,-4.10
2023-02-06T16:51:52.139Z,-4.00
2023-02-06T16:54:32.045Z,-4.10
2023-02-06T16:57:41.864Z,-4.20
2023-02-06T17:00:21.579Z,-4.20
2023-02-06T17:02:52.132Z,-4.20
2023-02-06T17:05:24.590Z,-4.20
2023-02-06T17:07:53.048Z,-4.30
2023-02-06T17:10:24.137Z,-4.20
2023-02-06T17:12:51.792Z,-4.30
2023-02-06T17:15:20.051Z,-4.40
2023-02-06T17:17:47.915Z,-4.40
2023-02-06T17:20:38.357Z,-4.30
2023-02-06T17:23:06.662Z,-4.30
2023-02-06T17:25:34.567Z,-4.20
2023-02-06T17:28:02.203Z,-4.30
2023-02-06T17:30:30.206Z,-4.30
2023-02-06T17:32:57.429Z,-4.30
2023-02-06T17:35:24.928Z,-4.40
2023-02-06T17:37:53.298Z,-4.30
2023-02-06T17:40:25.635Z,-4.30
2023-02-06T17:42:54.105Z,-4.30
2023-02-06T17:45:21.729Z,-4.50
2023-02-06T17:47:49.565Z,-4.50
2023-02-06T17:50:22.326Z,-4.40
2023-02-06T17:52:50.382Z,-4.40
2023-02-06T17:55:17.581Z,-4.40
2023-02-06T17:57:44.870Z,-4.30
2023-02-06T18:00:15.706Z,-4.40
2023-02-06T18:02:43.410Z,-4.40
2023-02-06T18:05:11.488Z,-4.40
2023-02-06T18:07:39.776Z,-4.30
2023-02-06T18:10:08.301Z,-4.40
2023-02-06T18:12:35.978Z,-4.30
2023-02-06T18:15:04.774Z,-4.30
2023-02-06T18:17:32.110Z,-4.30
2023-02-06T18:19:59.495Z,-4.30
2023-02-06T18:22:28.189Z,-4.20
2023-02-06T18:24:56.209Z,-4.30
2023-02-06T18:27:24.086Z,-4.40
2023-02-06T18:29:55.144Z,-4.40
2023-02-06T18:32:22.438Z,-4.40
2023-02-06T18:34:49.680Z,-4.40
2023-02-06T18:37:17.203Z,-4.40
2023-02-06T18:39:46.291Z,-4.40
2023-02-06T18:42:32.678Z,-4.40
2023-02-06T18:45:00.284Z,-4.40
2023-02-06T18:47:28.408Z,-4.40
2023-02-06T18:49:55.791Z,-4.40
2023-02-06T18:52:23.377Z,-4.40
2023-02-06T18:54:51.017Z,-4.40
2023-02-06T18:57:18.308Z,-4.40
2023-02-06T18:59:45.598Z,-4.50
2023-02-06T19:02:12.902Z,-4.50
2023-02-06T19:04:40.753Z,-4.50
2023-02-06T19:07:10.003Z,-4.60
2023-02-06T19:09:38.180Z,-4.50
2023-02-06T19:12:05.637Z,-4.50
2023-02-06T19:14:32.892Z,-4.50
2023-02-06T19:17:00.295Z,-4.50
2023-02-06T19:19:27.561Z,-4.50
2023-02-06T19:21:56.355Z,-4.50
2023-02-06T19:24:24.188Z,-4.40
2023-02-06T19:26:51.308Z,-4.50
2023-02-06T19:29:34.877Z,-4.60
2023-02-06T19:32:07.632Z,-4.60
2023-02-06T19:34:38.046Z,-4.60
2023-02-06T19:37:10.317Z,-4.60
2023-02-06T19:39:40.435Z,-4.70
2023-02-06T19:42:10.765Z,-4.70
2023-02-06T19:44:38.163Z,-4.60
2023-02-06T19:47:05.593Z,-4.60
2023-02-06T19:49:33.148Z,-4.60
2023-02-06T19:52:03.062Z,-4.60
2023-02-06T19:54:31.060Z,-4.60
2023-02-06T19:57:00.784Z,-4.70
2023-02-06T19:59:29.156Z,-4.70
2023-02-06T20:01:59.209Z,-4.70
2023-02-06T20:04:29.907Z,-4.70
2023-02-06T20:06:57.592Z,-4.70
2023-02-06T20:09:26.818Z,-4.80
2023-02-06T20:11:54.837Z,-4.80
2023-02-06T20:14:23.359Z,-4.80
2023-02-06T20:16:51.035Z,-4.80
2023-02-06T20:19:24.865Z,-4.80
2023-02-06T20:21:54.581Z,-4.80
2023-02-06T20:24:25.182Z,-4.80
2023-02-06T20:26:56.028Z,-4.80
2023-02-06T20:29:32.263Z,-4.70
2023-02-06T20:32:00.064Z,-4.70
2023-02-06T20:34:27.779Z,-4.70
2023-02-06T20:36:55.889Z,-4.80
2023-02-06T20:39:24.430Z,-4.70
2023-02-06T20:41:52.476Z,-4.70
2023-02-06T20:44:20.656Z,-4.70
2023-02-06T20:46:48.237Z,-4.60
2023-02-06T20:49:26.482Z,-4.70
2023-02-06T20:51:54.338Z,-4.60
2023-02-06T20:54:21.980Z,-4.60
2023-02-06T20:56:50.039Z,-4.50
2023-02-06T20:59:19.303Z,-4.50
2023-02-06T21:01:46.658Z,-4.40
2023-02-06T21:04:15.426Z,-4.40
2023-02-06T21:06:43.783Z,-4.30
2023-02-06T21:09:11.932Z,-4.20
2023-02-06T21:11:41.720Z,-4.10
2023-02-06T21:14:09.918Z,-4.00
2023-02-06T21:16:39.113Z,-3.90
2023-02-06T21:19:09.501Z,-3.80
2023-02-06T21:21:37.860Z,-3.80
2023-02-06T21:24:05.906Z,-3.70
2023-02-06T21:26:33.550Z,-3.60
2023-02-06T21:29:02.595Z,-3.40
2023-02-06T21:31:37.486Z,-3.40
2023-02-06T21:34:25.956Z,-3.30
2023-02-06T21:36:54.799Z,-3.20
2023-02-06T21:39:27.028Z,-3.20
2023-02-06T21:41:54.271Z,-3.20
2023-02-06T21:44:24.219Z,-3.20
2023-02-06T21:46:51.911Z,-3.10
2023-02-06T21:49:21.258Z,-3.10
2023-02-06T21:51:48.500Z,-3.00
2023-02-06T21:54:15.779Z,-3.00
2023-02-06T21:56:43.315Z,-3.00
2023-02-06T21:59:12.029Z,-3.00
2023-02-06T22:01:41.036Z,-2.90
2023-02-06T22:04:09.894Z,-2.90
2023-02-06T22:06:37.986Z,-2.80
2023-02-06T22:09:07.896Z,-2.80
2023-02-06T22:11:37.763Z,-2.80
2023-02-06T22:14:10.755Z,-2.70
2023-02-06T22:16:38.540Z,-2.70
2023-02-06T22:19:06.696Z,-2.60
2023-02-06T22:21:35.324Z,-2.60
2023-02-06T22:24:06.788Z,-2.60
2023-02-06T22:26:38.739Z,-2.60
2023-02-06T22:29:13.632Z,-2.70
2023-02-06T22:31:43.368Z,-2.70
2023-02-06T22:34:19.988Z,-2.80
2023-02-06T22:36:48.373Z,-2.80
2023-02-06T22:39:17.408Z,-2.80
2023-02-06T22:41:46.140Z,-2.80
2023-02-06T22:44:16.947Z,-2.80
2023-02-06T22:46:47.251Z,-2.90
2023-02-06T22:49:14.804Z,-2.90
2023-02-06T22:51:42.230Z,-2.90
2023-02-06T22:54:10.324Z,-2.90
2023-02-06T22:56:40.047Z,-2.90
2023-02-06T22:59:13.372Z,-2.90
2023-02-06T23:01:46.271Z,-3.00
2023-02-06T23:04:22.886Z,-3.00
2023-02-06T23:06:50.825Z,-3.00
2023-02-06T23:09:38.107Z,-3.10
2023-02-06T23:12:05.947Z,-3.00
2023-02-06T23:14:33.575Z,-2.90
2023-02-06T23:17:02.377Z,-2.90
2023-02-06T23:19:30.175Z,-2.90
2023-02-06T23:21:57.307Z,-2.90
2023-02-06T23:24:24.722Z,-2.60
2023-02-06T23:26:53.847Z,-2.50
2023-02-06T23:29:22.961Z,-2.40
2023-02-06T23:31:51.273Z,-2.30
2023-02-06T23:34:19.869Z,-2.20
2023-02-06T23:36:47.517Z,-2.10
2023-02-06T23:39:14.750Z,-2.00
2023-02-06T23:41:42.011Z,-1.90
2023-02-06T23:44:10.544Z,-1.90
2023-02-06T23:46:39.455Z,-1.70
2023-02-06T23:49:06.917Z,-1.70
2023-02-06T23:51:35.276Z,-1.70
2023-02-06T23:54:02.928Z,-1.60
2023-02-06T23:56:32.049Z,-1.60
2023-02-06T23:59:00.846Z,-1.60
